createdAt,value
2022-11-02T00:03:08.670Z,55.10
2022-11-02T00:08:08.221Z,62.50
2022-11-02T00:13:08.207Z,61.70
2022-11-02T00:18:08.092Z,65.10
2022-11-02T00:23:08.068Z,64.00
2022-11-02T00:28:07.896Z,63.00
2022-11-02T00:33:07.839Z,66.80
2022-11-02T00:38:08.041Z,58.50
2022-11-02T00:43:07.730Z,72.10
2022-11-02T00:48:08.020Z,64.30
2022-11-02T00:53:07.643Z,68.70
2022-11-02T00:58:07.811Z,67.50
2022-11-02T01:03:07.428Z,68.50
2022-11-02T01:08:07.515Z,70.70
2022-11-02T01:13:07.333Z,67.60
2022-11-02T01:18:07.517Z,73.40
2022-11-02T01:23:07.166Z,73.90
2022-11-02T01:28:07.324Z,70.40
2022-11-02T01:33:07.013Z,70.10
2022-11-02T01:38:07.250Z,74.20
2022-11-02T01:43:06.912Z,69.60
2022-11-02T01:48:07.047Z,62.00
2022-11-02T01:53:06.775Z,55.60
2022-11-02T01:58:07.060Z,58.40
2022-11-02T02:03:06.614Z,67.60
2022-11-02T02:08:07.055Z,70.90
2022-11-02T02:13:06.493Z,70.50
2022-11-02T02:18:06.743Z,65.00
2022-11-02T02:23:06.390Z,63.90
2022-11-02T02:28:06.679Z,75.50
2022-11-02T02:33:06.277Z,75.90
2022-11-02T02:38:06.579Z,72.10
2022-11-02T02:43:06.088Z,72.10
2022-11-02T02:48:08.097Z,81.70
2022-11-02T02:53:08.880Z,81.80
2022-11-02T02:58:06.191Z,76.00
2022-11-02T03:03:05.867Z,70.80
2022-11-02T03:08:06.102Z,75.10
2022-11-02T03:13:05.732Z,72.70
2022-11-02T03:18:05.967Z,68.70
2022-11-02T03:23:05.589Z,68.10
2022-11-02T03:28:05.958Z,68.10
2022-11-02T03:33:05.468Z,66.80
2022-11-02T03:38:05.672Z,64.20
2022-11-02T03:43:05.378Z,57.30
2022-11-02T03:48:05.465Z,59.20
2022-11-02T03:53:05.193Z,72.60
2022-11-02T03:58:05.394Z,67.30
2022-11-02T04:03:05.074Z,69.20
2022-11-02T04:08:05.205Z,65.80
2022-11-02T04:13:04.931Z,64.30
2022-11-02T04:18:05.106Z,73.60
2022-11-02T04:23:04.826Z,74.80
2022-11-02T04:28:04.948Z,60.90
2022-11-02T04:33:04.708Z,61.50
2022-11-02T04:38:04.949Z,69.80
2022-11-02T04:43:04.527Z,66.70
2022-11-02T04:48:04.780Z,64.70
2022-11-02T04:53:04.410Z,62.90
2022-11-02T04:58:04.729Z,62.80
2022-11-02T05:03:08.100Z,59.50
2022-11-02T05:08:05.556Z,61.20
2022-11-02T05:13:04.161Z,59.70
2022-11-02T05:18:04.491Z,63.50
2022-11-02T05:23:04.347Z,58.70
2022-11-02T05:28:03.985Z,64.10
2022-11-02T05:33:04.176Z,68.00
2022-11-02T05:38:03.804Z,62.50
2022-11-02T05:43:04.115Z,61.50
2022-11-02T05:48:03.699Z,56.10
2022-11-02T05:53:04.128Z,60.70
2022-11-02T05:58:03.565Z,59.30
2022-11-02T06:03:03.909Z,58.40
2022-11-02T06:08:07.297Z,59.70
2022-11-02T06:13:03.773Z,58.20
2022-11-02T06:18:03.289Z,55.80
2022-11-02T06:23:03.913Z,51.20
2022-11-02T06:28:03.181Z,56.00
2022-11-02T06:33:06.926Z,48.20
2022-11-02T06:38:03.047Z,44.40
2022-11-02T06:43:15.897Z,39.20
2022-11-02T06:48:03.969Z,32.70
2022-11-02T06:53:03.325Z,29.60
2022-11-02T06:58:02.774Z,27.00
2022-11-02T07:03:03.014Z,24.30
2022-11-02T07:08:02.660Z,24.60
2022-11-02T07:13:02.866Z,27.10
2022-11-02T07:18:02.509Z,27.30
2022-11-02T07:23:02.624Z,23.50
2022-11-02T07:28:02.409Z,22.60
2022-11-02T07:33:02.670Z,21.50
2022-11-02T07:38:02.249Z,21.60
2022-11-02T07:43:02.452Z,18.50
2022-11-02T07:48:02.146Z,18.80
2022-11-02T07:53:02.296Z,20.40
2022-11-02T07:58:02.218Z,18.10
2022-11-02T08:03:02.075Z,18.20
2022-11-02T08:08:02.195Z,19.10
2022-11-02T08:13:01.816Z,18.20
2022-11-02T08:18:02.125Z,19.70
2022-11-02T08:23:01.676Z,19.20
2022-11-02T08:28:01.785Z,19.50
2022-11-02T08:33:01.576Z,17.90
2022-11-02T08:38:01.694Z,17.80
2022-11-02T08:43:01.451Z,18.30
2022-11-02T08:48:01.506Z,17.40
2022-11-02T08:53:01.304Z,15.40
2022-11-02T08:58:01.272Z,14.10
2022-11-02T09:03:01.153Z,13.80
2022-11-02T09:08:01.117Z,12.00
2022-11-02T09:13:00.980Z,13.70
2022-11-02T09:18:00.968Z,9.00
2022-11-02T09:23:00.867Z,11.10
2022-11-02T09:28:00.826Z,13.30
2022-11-02T09:33:00.754Z,10.20
2022-11-02T09:38:00.675Z,11.00
2022-11-02T09:43:00.602Z,11.00
2022-11-02T09:48:16.433Z,8.50
2022-11-02T09:53:01.811Z,11.00
2022-11-02T09:58:00.409Z,10.60
2022-11-02T10:03:00.402Z,7.60
2022-11-02T10:08:00.402Z,7.50
2022-11-02T10:13:00.214Z,7.60
2022-11-02T10:18:00.171Z,6.30
2022-11-02T10:23:00.109Z,5.30
2022-11-02T10:28:00.039Z,8.10
2022-11-02T10:32:59.951Z,5.40
2022-11-02T10:37:59.867Z,8.10
2022-11-02T10:42:59.828Z,7.30
2022-11-02T10:47:59.759Z,5.50
2022-11-02T10:53:20.217Z,8.20
2022-11-02T10:58:00.629Z,5.00
2022-11-02T11:02:59.587Z,7.80
2022-11-02T11:07:59.513Z,5.40
2022-11-02T11:12:59.431Z,6.60
2022-11-02T11:23:00.309Z,7.50
2022-11-02T11:27:59.244Z,6.40
2022-11-02T11:32:59.381Z,7.30
2022-11-02T11:37:59.391Z,8.70
2022-11-02T11:43:02.306Z,11.00
2022-11-02T11:47:58.975Z,7.50
2022-11-02T11:52:58.920Z,8.30
2022-11-02T11:57:58.855Z,9.20
2022-11-02T12:02:58.829Z,6.70
2022-11-02T12:07:58.725Z,5.20
2022-11-02T12:12:58.665Z,8.20
2022-11-02T12:17:58.624Z,6.90
2022-11-02T12:22:58.517Z,5.60
2022-11-02T12:27:58.467Z,6.70
2022-11-02T12:32:58.396Z,10.10
2022-11-02T12:37:58.314Z,5.70
2022-11-02T12:42:58.243Z,8.50
2022-11-02T12:47:58.390Z,5.40
2022-11-02T12:52:58.134Z,7.70
2022-11-02T12:57:58.029Z,6.70
2022-11-02T13:02:57.958Z,7.90
2022-11-02T13:07:57.918Z,7.60
2022-11-02T13:12:57.860Z,7.30
2022-11-02T13:17:57.785Z,8.20
2022-11-02T13:22:57.718Z,6.80
2022-11-02T13:28:02.688Z,6.80
2022-11-02T13:32:58.645Z,9.30
2022-11-02T13:37:58.470Z,7.30
2022-11-02T13:42:57.560Z,8.80
2022-11-02T13:47:57.385Z,7.10
2022-11-02T13:52:57.337Z,5.90
2022-11-02T13:57:57.293Z,7.40
2022-11-02T14:02:57.254Z,6.50
2022-11-02T14:07:57.125Z,5.50
2022-11-02T14:12:57.903Z,7.70
2022-11-02T14:17:57.015Z,5.90
2022-11-02T14:22:56.966Z,8.20
2022-11-02T14:27:56.877Z,4.70
2022-11-02T14:32:56.835Z,5.80
2022-11-02T14:37:57.077Z,7.30
2022-11-02T14:42:56.888Z,6.40
2022-11-02T14:47:56.554Z,8.20
2022-11-02T14:52:56.506Z,5.80
2022-11-02T14:57:56.443Z,7.90
2022-11-02T15:02:56.444Z,6.90
2022-11-02T15:07:56.332Z,6.60
2022-11-02T15:12:56.289Z,7.60
2022-11-02T15:17:56.333Z,7.70
2022-11-02T15:22:56.217Z,5.90
2022-11-02T15:27:56.048Z,7.30
2022-11-02T15:33:01.259Z,7.60
2022-11-02T15:38:16.535Z,6.20
2022-11-02T15:42:56.905Z,6.10
2022-11-02T15:47:55.803Z,6.60
2022-11-02T15:53:21.632Z,6.80
2022-11-02T15:57:56.781Z,6.60
2022-11-02T16:02:55.711Z,7.90
2022-11-02T16:08:11.522Z,7.00
2022-11-02T16:12:56.459Z,6.90
2022-11-02T16:17:55.400Z,6.30
2022-11-02T16:22:55.329Z,6.90
2022-11-02T16:27:55.273Z,8.90
2022-11-02T16:32:55.253Z,9.90
2022-11-02T16:37:55.147Z,6.00
2022-11-02T16:42:55.105Z,8.10
2022-11-02T16:47:55.023Z,7.50
2022-11-02T16:52:55.025Z,9.10
2022-11-02T16:57:54.864Z,9.00
2022-11-02T17:02:54.861Z,8.70
2022-11-02T17:07:54.811Z,37.10
2022-11-02T17:12:55.044Z,8.50
2022-11-02T17:17:54.785Z,9.80
2022-11-02T17:22:54.832Z,10.00
2022-11-02T17:27:54.777Z,9.70
2022-11-02T17:32:56.664Z,9.70
2022-11-02T17:37:54.575Z,9.80
2022-11-02T17:42:54.320Z,10.70
2022-11-02T17:47:54.425Z,9.00
2022-11-02T17:52:54.145Z,9.00
2022-11-02T17:57:54.169Z,12.20
2022-11-02T18:02:54.163Z,12.70
2022-11-02T18:07:54.041Z,10.70
2022-11-02T18:12:54.177Z,14.30
2022-11-02T18:17:53.829Z,11.50
2022-11-02T18:22:53.824Z,13.30
2022-11-02T18:27:53.690Z,14.60
2022-11-02T18:32:53.623Z,19.80
2022-11-02T18:37:53.585Z,17.00
2022-11-02T18:42:53.546Z,23.20
2022-11-02T18:47:53.441Z,21.00
2022-11-02T18:52:53.656Z,21.30
2022-11-02T18:57:53.269Z,13.90
2022-11-02T19:02:53.224Z,14.00
2022-11-02T19:07:53.163Z,13.50
2022-11-02T19:12:53.229Z,10.70
2022-11-02T19:17:53.013Z,10.00
2022-11-02T19:22:54.632Z,14.60
2022-11-02T19:27:52.890Z,10.90
2022-11-02T19:32:52.940Z,10.20
2022-11-02T19:37:53.139Z,13.80
2022-11-02T19:42:52.829Z,13.50
2022-11-02T19:47:52.679Z,13.90
2022-11-02T19:52:52.604Z,12.40
2022-11-02T19:57:52.518Z,12.70
2022-11-02T20:02:52.697Z,12.30
2022-11-02T20:07:52.459Z,11.20
2022-11-02T20:12:52.328Z,12.00
2022-11-02T20:18:17.618Z,15.10
2022-11-02T20:22:53.389Z,14.50
2022-11-02T20:27:52.212Z,11.00
2022-11-02T20:32:52.159Z,12.60
2022-11-02T20:37:51.940Z,15.80
2022-11-02T20:42:52.042Z,13.70
2022-11-02T20:47:51.922Z,12.60
2022-11-02T20:52:51.748Z,11.50
2022-11-02T20:57:51.761Z,13.40
2022-11-02T21:02:51.834Z,13.00
2022-11-02T21:07:51.536Z,12.10
2022-11-02T21:12:51.592Z,10.40
2022-11-02T21:17:51.485Z,12.70
2022-11-02T21:22:51.407Z,14.00
2022-11-02T21:27:51.517Z,13.90
2022-11-02T21:32:51.325Z,11.80
2022-11-02T21:37:51.169Z,12.30
2022-11-02T21:42:51.168Z,11.80
2022-11-02T21:47:51.100Z,14.60
2022-11-02T21:52:51.022Z,13.40
2022-11-02T21:57:50.945Z,15.30
2022-11-02T22:02:50.881Z,11.40
2022-11-02T22:07:50.796Z,13.50
2022-11-02T22:12:50.725Z,15.30
2022-11-02T22:17:50.667Z,15.80
2022-11-02T22:22:50.642Z,17.20
2022-11-02T22:27:50.565Z,13.60
2022-11-02T22:32:50.481Z,15.50
2022-11-02T22:37:50.397Z,12.90
2022-11-02T22:42:50.355Z,15.20
2022-11-02T22:47:50.296Z,14.40
2022-11-02T22:52:50.196Z,15.90
2022-11-02T22:57:50.420Z,16.50
2022-11-02T23:02:50.129Z,16.20
2022-11-02T23:07:50.011Z,14.20
2022-11-02T23:12:49.952Z,14.50
2022-11-02T23:17:49.879Z,16.60
2022-11-02T23:22:49.807Z,16.20
2022-11-02T23:27:49.737Z,16.80
2022-11-02T23:32:49.667Z,16.00
2022-11-02T23:37:49.608Z,13.00
2022-11-02T23:42:49.559Z,12.80
2022-11-02T23:47:49.478Z,13.90
2022-11-02T23:52:49.442Z,17.90
2022-11-02T23:57:49.353Z,14.30
